Decoded Metar for CYSC (SHERBROOKE in QC, CANADA) (IATA:YSC) | Meteo·Mobile Aviation Weather
aviador You're here:

CYSC Decoded Metar

SHERBROOKE in QC, CANADA
Report Time2018-09-23 12:00:00
UTC Time2018-09-23 13:03:47
Flight Rules vfr VFR
WindVRB at 02 kt
Visibility9999 m
Phenomena:N/A
Clouds:N/A
Expected CloudBase > 400 ft AGL from Temp-Dew spread
CeilingNone
Temp04°C (ISA -9)
Dew Point03°C (93% RH)
AAT1.8°C
QNH1024 hPa
Density Alt-617 ft
Elevation791 ft
Report Wrong Elevation
Raw Report
CYSC 231200Z AUTO VRB02KT 9SM CLR 04/03 A3024 RMK SLP249=

Extra information for CYSC:More info

Metar Taf Metar & Taf Last 4 Metars F.Rules Stats Wind Profile Meteogram Temp Stats Airport Information Weather charts Add Link Nearby VenuesMetar ALERT Operation Metar Decoded Social comments